Time;durP1;ratioP1;P1;durP2;ratioP2;P2;SDS_P1;SDS_P2;PMS_P1;PMS_P2;Temp;Humidity;BMP_temperature;BMP_pressure;BME280_temperature;BME280_humidity;BME280_pressure;Samples;Min_cycle;Max_cycle;Signal;HPM_P1;HPM_P2
2022/03/20 00:00:14;;;;;;;9.63;8.70;;;;;;;1.14;51.92;101917.19;5092951;28;20501;-71
2022/03/20 00:02:42;;;;;;;9.23;8.33;;;;;;;1.11;52.22;101916.50;5092862;28;20441;-71
2022/03/20 00:05:10;;;;;;;8.90;8.10;;;;;;;1.08;52.64;101917.50;5092349;28;20802;-71
2022/03/20 00:07:38;;;;;;;9.93;8.93;;;;;;;1.01;52.71;101910.88;5092272;28;20857;-71
2022/03/20 00:10:07;;;;;;;10.37;9.30;;;;;;;1.01;52.60;101910.03;5092575;28;20433;-71
2022/03/20 00:12:33;;;;;;;9.90;8.90;;;;;;;0.97;52.87;101911.13;5093363;28;20445;-71
2022/03/20 00:15:01;;;;;;;10.73;9.10;;;;;;;0.90;53.06;101907.94;5092588;28;20441;-71
2022/03/20 00:17:29;;;;;;;14.10;10.10;;;;;;;0.82;53.31;101904.88;5092447;28;20433;-71
2022/03/20 00:19:56;;;;;;;11.70;9.23;;;;;;;0.82;53.61;101904.88;5092710;28;20932;-71
2022/03/20 00:22:23;;;;;;;10.30;9.13;;;;;;;0.77;53.78;101895.56;5092113;28;20869;-71
2022/03/20 00:24:50;;;;;;;12.80;9.93;;;;;;;0.66;53.86;101883.00;5093193;28;20490;-71
2022/03/20 00:27:18;;;;;;;10.67;9.63;;;;;;;0.55;54.90;101890.50;5092223;28;20481;-71
2022/03/20 00:29:45;;;;;;;11.97;9.80;;;;;;;0.41;55.69;101882.50;5092286;28;20510;-71
2022/03/20 00:32:14;;;;;;;10.13;9.13;;;;;;;0.35;55.94;101877.56;5092939;28;20445;-71
2022/03/20 00:34:41;;;;;;;12.17;10.30;;;;;;;0.45;55.91;101884.03;5092772;28;20434;-71
2022/03/20 00:37:09;;;;;;;12.27;10.80;;;;;;;0.45;56.28;101878.78;5092238;28;20453;-71
2022/03/20 00:39:36;;;;;;;13.83;10.10;;;;;;;0.45;56.33;101881.41;5093022;28;20504;-71
2022/03/20 00:42:03;;;;;;;11.30;10.20;;;;;;;0.44;56.78;101882.34;5092916;28;20437;-71
2022/03/20 00:44:30;;;;;;;14.00;9.97;;;;;;;0.40;56.98;101877.34;5092205;28;20513;-71
2022/03/20 00:46:57;;;;;;;12.40;10.23;;;;;;;0.35;57.33;101877.56;5091695;28;20995;-71
2022/03/20 00:49:25;;;;;;;10.90;9.83;;;;;;;0.27;58.01;101874.44;5092135;28;20429;-71
2022/03/20 00:51:51;;;;;;;11.93;10.33;;;;;;;0.18;57.81;101874.91;5092727;28;20491;-71
2022/03/20 00:54:18;;;;;;;14.93;10.60;;;;;;;0.12;58.62;101875.16;5092485;28;20514;-72
2022/03/20 00:56:46;;;;;;;12.97;11.37;;;;;;;0.06;58.83;101875.47;5092337;28;20498;-71
2022/03/20 00:59:13;;;;;;;14.67;10.47;;;;;;;0.03;59.08;101880.81;5094802;28;20469;-71
2022/03/20 01:01:41;;;;;;;14.30;10.87;;;;;;;-0.05;59.51;101877.72;5095739;28;20498;-71
2022/03/20 01:04:08;;;;;;;15.70;11.20;;;;;;;-0.09;59.62;101877.03;5095961;28;20433;-72
2022/03/20 01:06:36;;;;;;;15.07;11.30;;;;;;;-0.07;59.67;101874.34;5096015;28;20481;-71
2022/03/20 01:09:03;;;;;;;15.33;11.10;;;;;;;-0.02;59.61;101877.59;5095675;28;20947;-72
2022/03/20 01:11:30;;;;;;;13.07;11.03;;;;;;;-0.07;60.03;101882.19;5095878;28;20441;-72
2022/03/20 01:13:57;;;;;;;12.17;10.93;;;;;;;-0.17;60.86;101878.28;5096095;28;20495;-72
2022/03/20 01:16:24;;;;;;;11.43;10.43;;;;;;;-0.22;61.29;101881.13;5096307;28;20501;-72
2022/03/20 01:18:51;;;;;;;13.17;11.70;;;;;;;-0.58;62.09;101877.53;5096581;28;20440;-72
2022/03/20 01:21:18;;;;;;;15.50;11.93;;;;;;;-0.75;62.82;101887.00;5095584;28;20429;-71
2022/03/20 01:23:46;;;;;;;15.30;11.67;;;;;;;-0.85;64.09;101880.50;5096165;28;20433;-71
2022/03/20 01:26:13;;;;;;;18.73;13.70;;;;;;;-0.74;64.16;101886.09;5095071;28;20479;-71
2022/03/20 01:28:39;;;;;;;17.77;12.70;;;;;;;-0.79;64.48;101883.69;5095232;28;20482;-71
2022/03/20 01:31:08;;;;;;;18.27;13.57;;;;;;;-1.02;64.61;101872.56;5093823;28;20533;-71
2022/03/20 01:33:35;;;;;;;15.67;13.37;;;;;;;-1.10;65.20;101872.84;5095469;28;20502;-71
2022/03/20 01:36:01;;;;;;;22.77;12.50;;;;;;;-1.21;65.61;101869.00;5095069;28;20820;-71
2022/03/20 01:38:28;;;;;;;23.17;12.20;;;;;;;-1.21;66.65;101869.88;5095366;28;20441;-71
2022/03/20 01:40:57;;;;;;;19.87;13.00;;;;;;;-1.22;66.09;101867.34;5095340;28;20437;-71
2022/03/20 01:43:23;;;;;;;17.90;12.00;;;;;;;-1.46;66.43;101869.16;5094981;28;20534;-71
2022/03/20 01:45:50;;;;;;;16.37;13.13;;;;;;;-1.62;67.24;101867.25;5095215;28;20432;-71
2022/03/20 01:48:17;;;;;;;16.13;12.67;;;;;;;-1.77;67.96;101868.72;5095433;28;20441;-70
2022/03/20 01:50:44;;;;;;;15.07;11.73;;;;;;;-1.63;68.58;101865.56;5095182;28;20486;-71
2022/03/20 01:53:11;;;;;;;20.57;13.57;;;;;;;-1.62;68.51;101873.31;5094808;28;20499;-71
2022/03/20 01:55:38;;;;;;;15.70;12.77;;;;;;;-1.55;68.25;101873.91;5095614;28;20429;-71
2022/03/20 01:58:06;;;;;;;18.33;13.47;;;;;;;-1.48;67.76;101875.34;5094999;28;20498;-72
2022/03/20 02:00:32;;;;;;;18.97;14.37;;;;;;;-1.60;67.99;101873.22;5094683;28;20459;-71
2022/03/20 02:02:59;;;;;;;19.87;13.77;;;;;;;-1.70;67.60;101869.31;5095106;28;20524;-71
2022/03/20 02:05:26;;;;;;;23.10;15.47;;;;;;;-1.88;68.75;101872.66;5094851;28;20522;-71
2022/03/20 02:07:54;;;;;;;23.17;14.67;;;;;;;-1.96;68.78;101862.50;5095073;28;20481;-71
2022/03/20 02:10:23;;;;;;;22.63;15.97;;;;;;;-1.70;68.93;101871.91;5094540;28;20441;-71
2022/03/20 02:12:50;;;;;;;23.67;16.30;;;;;;;-1.51;67.86;101878.94;5073596;28;20442;-71
2022/03/20 02:15:18;;;;;;;20.30;15.43;;;;;;;-1.37;67.40;101878.38;5074012;28;20487;-70
2022/03/20 02:17:45;;;;;;;28.87;15.77;;;;;;;-1.29;67.30;101882.38;5074080;28;21022;-71
2022/03/20 02:20:13;;;;;;;22.17;15.97;;;;;;;-1.33;66.91;101880.81;5074045;28;20446;-71
2022/03/20 02:22:43;;;;;;;23.83;15.20;;;;;;;-1.28;66.83;101881.47;5074258;28;20438;-71
2022/03/20 02:25:11;;;;;;;25.37;15.20;;;;;;;-1.21;66.54;101875.09;5074223;28;20482;-71
2022/03/20 02:27:39;;;;;;;19.50;14.27;;;;;;;-1.10;66.27;101872.84;5074180;28;21028;-71
2022/03/20 02:30:13;;;;;;;21.30;14.93;;;;;;;-1.05;66.08;101872.69;5073911;28;20438;-71
2022/03/20 02:32:41;;;;;;;23.77;15.97;;;;;;;-1.01;66.68;101869.84;5075044;28;20435;-71
2022/03/20 02:35:15;;;;;;;20.60;14.50;;;;;;;-0.97;66.15;101868.81;5074070;28;20448;-71
2022/03/20 02:37:46;;;;;;;23.83;16.53;;;;;;;-0.98;65.67;101868.91;5074269;28;20874;-71
2022/03/20 02:40:14;;;;;;;23.23;15.17;;;;;;;-1.12;66.69;101868.63;5073694;28;20937;-71
2022/03/20 02:42:44;;;;;;;21.30;14.30;;;;;;;-1.10;66.93;101864.22;5073582;28;20450;-71
2022/03/20 02:45:12;;;;;;;23.10;15.57;;;;;;;-1.03;66.66;101868.22;5073852;28;20442;-71
2022/03/20 02:47:41;;;;;;;25.07;16.23;;;;;;;-1.07;65.63;101866.66;5074592;28;20470;-71
2022/03/20 02:50:09;;;;;;;26.63;15.30;;;;;;;-1.07;66.06;101866.66;5073496;28;20944;-72
2022/03/20 02:52:47;;;;;;;21.97;16.20;;;;;;;-0.95;66.08;101861.78;5074569;28;20466;-72
2022/03/20 02:55:16;;;;;;;21.33;14.47;;;;;;;-0.89;66.05;101866.72;5073932;28;20513;-71
2022/03/20 02:57:44;;;;;;;24.90;17.80;;;;;;;-1.01;65.46;101864.63;5074240;28;20484;-71
2022/03/20 03:00:11;;;;;;;20.73;15.17;;;;;;;-1.16;64.88;101867.06;5073556;28;20434;-71
2022/03/20 03:02:43;;;;;;;19.43;14.60;;;;;;;-1.29;66.19;101869.34;5073152;28;20491;-71
2022/03/20 03:05:10;;;;;;;20.60;15.07;;;;;;;-1.15;65.47;101863.53;5073209;28;20934;-71
2022/03/20 03:10:55;;;;;;;22.73;15.80;;;;;;;-1.14;64.30;101865.25;5073045;28;20992;-71
2022/03/20 03:13:12;;;;;;;18.13;13.60;;;;;;;-1.28;63.40;101857.13;5073345;28;20456;-71
2022/03/20 03:15:39;;;;;;;17.13;12.27;;;;;;;-1.52;63.16;101866.81;5074061;28;20489;-71
2022/03/20 03:18:05;;;;;;;17.83;12.00;;;;;;;-1.58;63.80;101864.47;5072843;28;20946;-71
2022/03/20 03:20:33;;;;;;;14.47;12.00;;;;;;;-1.61;62.66;101863.72;5072670;28;20450;-71
2022/03/20 03:23:00;;;;;;;13.47;11.23;;;;;;;-1.54;62.79;101865.19;5073106;28;20442;-71
2022/03/20 03:25:28;;;;;;;14.60;10.97;;;;;;;-1.52;61.79;101871.16;5073074;28;20500;-71
2022/03/20 03:27:55;;;;;;;12.67;10.83;;;;;;;-1.69;61.82;101865.78;5072964;28;20469;-71
2022/03/20 03:30:22;;;;;;;13.50;9.83;;;;;;;-1.76;62.03;101866.97;5072987;28;20479;-71
2022/03/20 03:32:49;;;;;;;10.47;9.33;;;;;;;-1.78;61.45;101867.03;5072887;28;20496;-72
2022/03/20 03:38:01;;;;;;;12.57;10.57;;;;;;;-1.98;61.62;101866.09;5072875;28;20479;-71
2022/03/20 03:40:30;;;;;;;11.73;9.87;;;;;;;-2.03;62.10;101870.63;5072512;28;21126;-71
2022/03/20 03:42:59;;;;;;;12.83;10.73;;;;;;;-2.07;62.16;101863.84;5072415;28;20967;-70
2022/03/20 03:45:26;;;;;;;20.07;13.03;;;;;;;-2.12;62.46;101877.03;5072928;28;20447;-70
2022/03/20 03:47:53;;;;;;;18.60;13.27;;;;;;;-2.05;62.19;101862.00;5072761;28;20813;-70
2022/03/20 03:50:21;;;;;;;20.00;13.50;;;;;;;-2.08;61.73;101867.34;5072919;28;20438;-70
2022/03/20 03:52:47;;;;;;;11.27;10.13;;;;;;;-2.20;62.47;101867.81;5072626;28;20442;-70
2022/03/20 03:55:15;;;;;;;12.40;9.70;;;;;;;-2.19;61.87;101866.91;5072304;28;20508;-70
2022/03/20 03:57:46;;;;;;;10.33;9.43;;;;;;;-2.22;61.39;101864.41;5072475;28;20434;-70
2022/03/20 04:00:14;;;;;;;9.83;7.73;;;;;;;-2.22;61.71;101867.00;5072568;28;20497;-71
2022/03/20 04:02:41;;;;;;;8.43;7.63;;;;;;;-2.27;61.83;101867.22;5072344;28;20438;-70
2022/03/20 04:05:08;;;;;;;9.33;8.43;;;;;;;-2.18;61.35;101868.59;5073095;28;20531;-70
2022/03/20 04:07:35;;;;;;;10.13;9.00;;;;;;;-2.17;61.16;101865.94;5072349;28;20477;-70
2022/03/20 04:10:03;;;;;;;9.03;8.13;;;;;;;-2.09;60.88;101866.50;5072087;28;20821;-70
2022/03/20 04:12:30;;;;;;;11.10;7.90;;;;;;;-2.10;60.19;101869.16;5072035;28;20438;-70
2022/03/20 04:15:02;;;;;;;12.10;8.00;;;;;;;-2.05;60.06;101873.28;5071980;28;20495;-70
2022/03/20 04:17:29;;;;;;;8.07;7.33;;;;;;;-2.07;59.85;101869.03;5072576;28;20442;-71
2022/03/20 04:19:56;;;;;;;10.10;8.33;;;;;;;-2.01;59.52;101880.06;5071982;28;20438;-70
2022/03/20 04:22:23;;;;;;;11.97;8.60;;;;;;;-2.06;59.59;101883.75;5072252;28;20495;-71
2022/03/20 04:24:51;;;;;;;9.27;8.57;;;;;;;-2.01;59.07;101874.88;5072299;28;20504;-71
2022/03/20 04:27:17;;;;;;;8.47;7.67;;;;;;;-1.91;59.15;101880.56;5071819;28;20477;-71
2022/03/20 04:29:44;;;;;;;8.77;7.90;;;;;;;-1.88;58.83;101885.66;5072683;28;20441;-72
2022/03/20 04:32:13;;;;;;;8.77;7.97;;;;;;;-2.02;59.09;101882.72;5071810;28;20437;-71
2022/03/20 04:34:40;;;;;;;7.50;6.83;;;;;;;-1.91;58.86;101877.97;5071620;28;20860;-71
2022/03/20 04:37:07;;;;;;;8.57;7.77;;;;;;;-1.87;57.97;101882.16;5071762;28;20446;-71
2022/03/20 04:39:35;;;;;;;8.30;7.60;;;;;;;-1.92;57.92;101884.09;5071755;28;20438;-72
2022/03/20 04:42:03;;;;;;;9.10;7.07;;;;;;;-1.78;58.60;101882.66;5071696;28;20503;-72
2022/03/20 04:44:30;;;;;;;10.33;7.60;;;;;;;-1.45;58.19;101890.88;5071979;28;20499;-71
2022/03/20 04:46:56;;;;;;;15.70;11.07;;;;;;;-1.21;58.66;101887.25;5071860;28;20478;-71
2022/03/20 05:00:23;;;;;;;11.60;9.23;;;;;;;-0.01;53.66;101880.13;5072523;28;20916;-71
2022/03/20 05:02:50;;;;;;;17.40;10.87;;;;;;;0.47;52.57;101890.03;5071750;28;20438;-72
2022/03/20 05:05:18;;;;;;;11.37;9.70;;;;;;;1.05;51.76;101885.41;5071650;28;20998;-71
2022/03/20 05:07:45;;;;;;;13.23;8.97;;;;;;;1.44;49.23;101892.06;5072544;28;20481;-71
2022/03/20 05:15:40;;;;;;;11.70;9.83;;;;;;;1.74;47.33;101900.91;5071735;28;20495;-72
2022/03/20 05:18:08;;;;;;;16.23;11.37;;;;;;;2.04;46.27;101899.25;5071627;28;20447;-72
2022/03/20 05:20:36;;;;;;;11.27;9.23;;;;;;;2.29;45.95;101896.97;5072132;28;20874;-74
2022/03/20 05:23:03;;;;;;;12.07;8.87;;;;;;;2.94;44.55;101898.53;5071299;28;20492;-73
2022/03/20 05:25:30;;;;;;;9.90;8.63;;;;;;;3.49;42.55;101908.31;5071621;28;20496;-73
2022/03/20 05:27:57;;;;;;;9.73;8.30;;;;;;;3.81;42.74;101901.94;5071262;28;20473;-73
2022/03/20 05:30:24;;;;;;;8.77;8.07;;;;;;;4.07;40.55;101906.41;5072157;28;20261;-73
2022/03/20 05:32:51;;;;;;;8.63;7.83;;;;;;;4.05;40.99;101905.66;5072154;28;20946;-71
2022/03/20 05:35:18;;;;;;;9.33;8.50;;;;;;;4.42;40.14;101899.75;5072023;28;20442;-74
2022/03/20 05:37:47;;;;;;;13.83;8.90;;;;;;;4.81;39.27;101906.84;5071342;28;20512;-74
2022/03/20 05:40:15;;;;;;;11.00;8.77;;;;;;;5.20;38.35;101907.69;5071431;28;20446;-75
2022/03/20 05:42:42;;;;;;;12.03;8.90;;;;;;;5.82;37.80;101924.53;5071160;28;20291;-73
2022/03/20 05:45:11;;;;;;;12.67;9.93;;;;;;;6.31;36.66;101921.91;5072243;28;20286;-73
2022/03/20 05:47:38;;;;;;;8.00;7.30;;;;;;;6.34;35.95;101897.94;5075024;28;20732;-73
2022/03/20 05:50:07;;;;;;;9.40;8.37;;;;;;;6.04;36.53;101918.59;5075427;28;20217;-74
2022/03/20 05:52:35;;;;;;;8.73;7.83;;;;;;;6.38;36.03;101929.31;5074887;28;20625;-74
2022/03/20 05:55:04;;;;;;;8.73;7.97;;;;;;;5.99;36.52;101925.97;5075765;28;20590;-74
2022/03/20 06:00:20;;;;;;;11.43;9.87;;;;;;;5.11;38.79;101918.84;5074751;28;20194;-73
2022/03/20 06:02:47;;;;;;;8.83;8.10;;;;;;;5.31;39.30;101918.34;5074906;28;20684;-74
2022/03/20 06:05:14;;;;;;;13.17;9.07;;;;;;;5.94;37.83;101918.41;5074647;28;20224;-73
2022/03/20 06:07:42;;;;;;;8.23;7.43;;;;;;;6.52;36.99;101928.28;5074172;28;20216;-73
2022/03/20 06:10:12;;;;;;;7.93;6.97;;;;;;;6.56;36.64;101932.38;5074282;28;20192;-73
2022/03/20 06:12:39;;;;;;;8.53;7.40;;;;;;;6.46;36.57;101931.38;5074815;28;20245;-73
2022/03/20 06:15:09;;;;;;;9.37;8.60;;;;;;;6.63;36.77;101929.22;5074155;28;20197;-73
2022/03/20 06:17:40;;;;;;;9.93;9.03;;;;;;;6.86;36.28;101930.19;5074493;28;20205;-73
2022/03/20 06:20:08;;;;;;;10.53;9.43;;;;;;;6.96;36.60;101932.03;5074709;28;20251;-74
2022/03/20 06:22:36;;;;;;;39.47;21.20;;;;;;;7.37;35.07;101921.84;5074857;28;20250;-73
2022/03/20 06:25:04;;;;;;;68.90;35.67;;;;;;;7.79;35.03;101928.25;5073955;28;20657;-73
2022/03/20 06:27:41;;;;;;;25.93;16.43;;;;;;;8.50;33.47;101931.41;5073859;28;20705;-71
2022/03/20 06:30:09;;;;;;;9.63;8.10;;;;;;;9.00;31.67;101931.63;5074757;28;20556;-71
2022/03/20 06:32:37;;;;;;;18.97;12.20;;;;;;;9.35;31.42;101934.81;5074301;28;20192;-71
2022/03/20 06:35:05;;;;;;;22.97;15.07;;;;;;;8.88;30.77;101926.47;5073972;28;20195;-71
2022/03/20 06:37:36;;;;;;;25.10;14.93;;;;;;;8.92;30.85;101928.75;5074122;28;20223;-71
2022/03/20 06:40:03;;;;;;;7.83;7.00;;;;;;;9.17;30.55;101939.03;5074099;28;20689;-72
2022/03/20 06:42:32;;;;;;;12.03;6.43;;;;;;;9.29;29.87;101937.16;5073710;28;20255;-70
2022/03/20 06:44:59;;;;;;;7.70;6.83;;;;;;;9.41;30.08;101925.50;5073012;28;20249;-70
2022/03/20 06:47:26;;;;;;;6.77;6.17;;;;;;;8.91;30.33;101926.25;5074436;28;20306;-70
2022/03/20 06:49:53;;;;;;;6.00;5.53;;;;;;;8.66;30.40;101921.25;5074132;28;20562;-72
2022/03/20 06:52:21;;;;;;;8.07;7.47;;;;;;;8.55;30.77;101929.22;5074220;28;20199;-71
2022/03/20 06:54:48;;;;;;;9.33;8.50;;;;;;;8.73;31.02;101928.56;5073763;28;20253;-72
2022/03/20 06:57:18;;;;;;;9.53;8.63;;;;;;;8.65;31.14;101924.84;5072825;28;20192;-76
2022/03/20 06:59:47;;;;;;;11.90;8.97;;;;;;;8.47;31.24;101918.41;5073668;28;20192;-76
2022/03/20 07:02:15;;;;;;;10.17;7.17;;;;;;;8.25;31.82;101918.44;5074165;28;20199;-72
2022/03/20 07:04:47;;;;;;;9.23;7.13;;;;;;;8.36;31.27;101924.56;5084491;28;20219;-74
2022/03/20 07:07:14;;;;;;;9.07;8.27;;;;;;;8.42;31.21;101907.34;5079964;28;20613;-76
2022/03/20 07:09:41;;;;;;;7.30;5.90;;;;;;;8.43;30.96;101914.31;5073410;28;20191;-75
2022/03/20 07:12:09;;;;;;;6.13;5.43;;;;;;;8.73;29.85;101922.41;5091283;28;20195;-75
2022/03/20 07:14:35;;;;;;;8.97;6.67;;;;;;;8.81;29.96;101904.09;5093233;28;20195;-80
2022/03/20 07:17:05;;;;;;;6.83;6.23;;;;;;;8.72;29.96;101905.69;5093342;28;20191;-76
2022/03/20 07:19:33;;;;;;;5.67;5.17;;;;;;;8.85;30.22;101932.03;5084128;28;20191;-75
2022/03/20 07:21:59;;;;;;;6.60;6.03;;;;;;;9.16;28.75;101920.59;5073016;28;20223;-75
2022/03/20 07:24:26;;;;;;;5.53;5.13;;;;;;;8.78;28.59;101915.78;5071731;28;20217;-74
2022/03/20 07:29:37;;;;;;;7.23;5.57;;;;;;;8.53;29.41;101907.34;5073174;28;20215;-76
2022/03/20 07:32:07;;;;;;;9.30;8.47;;;;;;;8.76;30.05;101900.97;5072763;28;20200;-74
2022/03/20 07:34:34;;;;;;;9.77;6.60;;;;;;;9.03;31.23;101898.72;5072228;28;20284;-75
2022/03/20 07:37:01;;;;;;;10.50;9.53;;;;;;;9.05;31.06;101899.41;5085536;28;20198;-73
2022/03/20 07:39:29;;;;;;;9.97;8.07;;;;;;;10.09;39.30;101886.78;5092744;28;20199;-70
2022/03/20 07:41:55;;;;;;;8.97;8.07;;;;;;;11.39;32.00;101896.97;5092916;28;20226;-75
2022/03/20 07:44:22;;;;;;;7.90;7.30;;;;;;;11.62;27.76;101898.38;5092423;28;20195;-71
2022/03/20 07:46:49;;;;;;;7.50;6.80;;;;;;;11.24;29.24;101895.75;5093112;28;20224;-73
2022/03/20 07:49:19;;;;;;;10.97;6.60;;;;;;;11.40;27.90;101895.16;5092428;28;20219;-72
2022/03/20 07:51:46;;;;;;;7.93;6.03;;;;;;;11.22;26.56;101904.84;5092683;28;20202;-73
2022/03/20 07:54:13;;;;;;;7.63;6.87;;;;;;;10.58;27.02;101900.06;5092577;28;20590;-75
2022/03/20 07:56:40;;;;;;;8.50;7.80;;;;;;;10.83;26.61;101901.34;5088346;28;20200;-72
2022/03/20 07:59:07;;;;;;;6.07;5.67;;;;;;;10.89;25.82;101895.47;5071217;28;20251;-76
2022/03/20 08:01:37;;;;;;;6.80;6.20;;;;;;;11.37;25.92;101893.63;5072153;28;20196;-76
2022/03/20 08:04:06;;;;;;;6.87;6.27;;;;;;;11.36;25.71;101886.63;5071235;28;20281;-76
2022/03/20 08:06:34;;;;;;;9.23;5.10;;;;;;;11.56;25.21;101887.41;5080102;28;20262;-74
2022/03/20 08:09:00;;;;;;;10.73;5.37;;;;;;;11.90;26.75;101881.47;5090539;28;20232;-76
2022/03/20 08:11:28;;;;;;;6.67;6.10;;;;;;;12.09;28.36;101867.22;5080523;28;20254;-74
2022/03/20 08:14:07;;;;;;;6.10;5.50;;;;;;;12.59;25.35;101869.28;5092663;28;20270;-74
2022/03/20 08:16:37;;;;;;;5.87;5.47;;;;;;;12.66;25.66;101880.19;5092361;28;20196;-76
2022/03/20 08:19:05;;;;;;;5.80;5.30;;;;;;;12.34;23.75;101875.34;5092397;28;20641;-77
2022/03/20 08:21:33;;;;;;;5.40;4.90;;;;;;;11.82;23.62;101868.03;5091872;28;20280;-76
2022/03/20 08:24:02;;;;;;;5.00;4.60;;;;;;;11.81;24.37;101869.03;5092255;28;20209;-74
2022/03/20 08:26:29;;;;;;;6.53;4.80;;;;;;;12.56;27.38;101856.25;5093160;28;20197;-74
2022/03/20 08:28:59;;;;;;;6.00;5.50;;;;;;;12.97;24.73;101857.47;5092345;28;20280;-74
2022/03/20 08:31:25;;;;;;;6.57;5.83;;;;;;;13.36;24.47;101861.47;5092918;28;20625;-75
2022/03/20 08:33:52;;;;;;;4.73;4.23;;;;;;;12.40;21.91;101858.75;5091032;28;20195;-75
2022/03/20 08:36:20;;;;;;;6.17;5.70;;;;;;;12.24;22.14;101831.91;5086303;28;20245;-75
2022/03/20 08:38:47;;;;;;;5.63;5.07;;;;;;;11.83;22.13;101848.41;5079728;28;20596;-77
2022/03/20 08:41:15;;;;;;;6.80;6.20;;;;;;;12.15;22.62;101851.47;5084756;28;20244;-73
2022/03/20 08:43:46;;;;;;;7.07;6.30;;;;;;;11.83;22.79;101847.53;5091550;28;20205;-74
2022/03/20 08:46:13;;;;;;;4.97;4.57;;;;;;;11.98;22.28;101852.25;5073849;28;20193;-73
2022/03/20 08:48:40;;;;;;;5.40;4.90;;;;;;;11.94;22.67;101850.03;5077794;28;20325;-73
2022/03/20 08:51:07;;;;;;;5.03;4.53;;;;;;;11.55;22.36;101835.19;5081673;28;20566;-76
2022/03/20 08:53:34;;;;;;;4.60;4.20;;;;;;;12.01;22.70;101835.97;5082579;28;20191;-77
2022/03/20 08:56:00;;;;;;;6.67;6.17;;;;;;;12.15;22.24;101838.16;5070248;28;20202;-78
2022/03/20 08:58:28;;;;;;;4.40;4.20;;;;;;;12.23;22.41;101830.25;5071376;28;20293;-75
2022/03/20 09:00:57;;;;;;;5.60;5.10;;;;;;;12.26;21.90;101827.28;5071283;28;20194;-74
2022/03/20 09:03:24;;;;;;;5.43;4.93;;;;;;;12.45;22.27;101819.13;5071822;28;20583;-75
2022/03/20 09:05:51;;;;;;;4.73;4.33;;;;;;;12.62;21.87;101826.31;5069418;28;20292;-73
2022/03/20 09:08:17;;;;;;;6.93;5.47;;;;;;;12.57;22.00;101825.94;5070392;28;20296;-71
2022/03/20 09:10:44;;;;;;;5.00;4.50;;;;;;;12.71;24.32;101814.75;5079704;28;20201;-73
2022/03/20 09:13:11;;;;;;;6.43;5.83;;;;;;;12.91;22.05;101810.88;5091635;28;20256;-75
2022/03/20 09:15:43;;;;;;;13.63;4.37;;;;;;;12.89;34.41;101788.88;5091542;28;20241;-75
2022/03/20 09:21:08;;;;;;;5.13;4.30;;;;;;;13.27;21.03;101807.19;5095955;28;20177;-73
2022/03/20 09:23:35;;;;;;;6.60;4.87;;;;;;;12.39;21.83;101803.75;5095577;28;20616;-71
2022/03/20 09:26:01;;;;;;;5.50;4.70;;;;;;;12.39;21.78;101811.75;5099159;28;20199;-73
2022/03/20 09:28:29;;;;;;;4.73;4.27;;;;;;;12.80;21.43;101800.47;5104452;28;20226;-76
2022/03/20 09:30:57;;;;;;;4.50;4.10;;;;;;;13.20;21.26;101805.31;5097366;28;20206;-77
2022/03/20 09:33:25;;;;;;;4.97;4.50;;;;;;;12.63;21.68;101806.66;5115424;28;20727;-75
2022/03/20 09:35:51;;;;;;;4.70;4.23;;;;;;;12.64;22.15;101792.34;5114577;28;20240;-78
2022/03/20 09:38:20;;;;;;;4.60;4.30;;;;;;;12.29;22.04;101799.50;5115779;28;20638;-76
2022/03/20 09:40:48;;;;;;;5.00;4.60;;;;;;;12.45;21.55;101797.81;5115384;28;20186;-76
2022/03/20 09:43:15;;;;;;;8.40;4.70;;;;;;;12.50;22.08;101792.03;5115249;28;20653;-76
2022/03/20 09:45:42;;;;;;;5.80;4.83;;;;;;;12.40;22.38;101789.44;5115298;28;20198;-76
2022/03/20 09:48:15;;;;;;;4.20;3.90;;;;;;;12.50;22.38;101784.84;5115398;28;20190;-75
2022/03/20 09:50:44;;;;;;;4.73;4.33;;;;;;;12.78;21.30;101775.78;5115715;28;20203;-74
2022/03/20 09:53:11;;;;;;;5.27;4.30;;;;;;;11.98;21.81;101783.00;5115617;28;20196;-74
2022/03/20 09:55:38;;;;;;;6.40;5.80;;;;;;;12.08;22.14;101746.47;5114849;28;20190;-75
2022/03/20 09:58:04;;;;;;;5.00;4.60;;;;;;;12.57;21.25;101775.28;5115192;27;20216;-75
2022/03/20 10:00:32;;;;;;;4.03;3.73;;;;;;;12.40;22.21;101773.44;5114774;28;20197;-72
2022/03/20 10:02:59;;;;;;;4.30;3.93;;;;;;;12.70;20.86;101767.72;5115136;28;20197;-73
2022/03/20 10:05:27;;;;;;;3.50;3.30;;;;;;;12.72;21.15;101747.06;5114936;28;20222;-74
2022/03/20 10:07:54;;;;;;;3.90;3.70;;;;;;;12.43;21.99;101759.81;5115069;28;20575;-74
2022/03/20 10:10:23;;;;;;;5.70;5.10;;;;;;;12.46;23.67;101754.16;5108926;28;20705;-74
2022/03/20 10:12:53;;;;;;;5.40;4.53;;;;;;;12.62;22.24;101756.97;5093816;28;20334;-74
2022/03/20 10:15:32;;;;;;;6.23;5.70;;;;;;;12.56;22.90;101752.28;5094977;28;20246;-75
2022/03/20 10:18:06;;;;;;;5.40;4.90;;;;;;;12.52;22.23;101750.91;5094284;28;20656;-76
2022/03/20 10:20:38;;;;;;;5.00;4.63;;;;;;;12.94;26.43;101724.41;5094047;28;20631;-73
2022/03/20 10:23:05;;;;;;;21.47;6.03;;;;;;;13.23;22.36;101744.44;5094571;28;20593;-74
2022/03/20 10:25:32;;;;;;;7.00;6.30;;;;;;;13.26;21.80;101743.28;5094066;28;20182;-72
2022/03/20 10:28:00;;;;;;;5.17;4.77;;;;;;;13.24;21.00;101737.28;5094414;28;20724;-78
2022/03/20 10:30:27;;;;;;;5.27;4.90;;;;;;;13.27;21.05;101735.13;5093826;28;20223;-73
2022/03/20 10:32:53;;;;;;;5.77;5.23;;;;;;;13.34;20.54;101743.31;5093283;28;20217;-74
2022/03/20 10:35:20;;;;;;;4.37;4.00;;;;;;;12.95;20.92;101736.75;5094117;28;20258;-74
2022/03/20 10:37:54;;;;;;;4.23;3.93;;;;;;;13.27;22.06;101727.09;5094147;28;20207;-73
2022/03/20 10:40:24;;;;;;;4.67;4.27;;;;;;;12.78;21.99;101725.09;5094792;28;20568;-73
2022/03/20 10:43:12;;;;;;;7.63;4.70;;;;;;;13.00;21.49;101731.78;5093882;28;20647;-72
2022/03/20 10:46:00;;;;;;;10.33;4.83;;;;;;;12.98;21.04;101721.28;5093906;28;20203;-72
2022/03/20 10:48:46;;;;;;;4.20;3.90;;;;;;;12.91;20.64;101714.84;5093737;28;20611;-73
2022/03/20 10:51:12;;;;;;;4.27;3.97;;;;;;;12.98;20.66;101713.25;5094232;28;20237;-73
2022/03/20 10:53:55;;;;;;;5.77;5.33;;;;;;;13.06;21.16;101718.66;5094041;28;20256;-71
2022/03/20 10:56:37;;;;;;;4.70;4.40;;;;;;;12.24;22.03;101714.66;5094166;28;20183;-71
2022/03/20 10:59:18;;;;;;;4.07;3.87;;;;;;;11.58;22.71;101713.25;5093954;28;20199;-71
2022/03/20 11:01:58;;;;;;;4.17;3.30;;;;;;;11.76;20.99;101708.81;5094183;28;20278;-71
2022/03/20 11:04:25;;;;;;;5.33;3.87;;;;;;;11.31;21.10;101702.59;5093369;28;20203;-71
2022/03/20 11:06:55;;;;;;;4.10;3.87;;;;;;;11.11;21.50;101714.28;5093977;28;20247;-68
2022/03/20 11:09:23;;;;;;;4.27;3.97;;;;;;;10.97;21.47;101714.78;5086328;28;20222;-68
2022/03/20 11:11:54;;;;;;;3.97;3.67;;;;;;;10.98;20.72;101692.50;5088193;28;20186;-72
2022/03/20 11:14:41;;;;;;;3.70;3.50;;;;;;;10.97;21.45;101658.94;5076962;28;20292;-75
2022/03/20 11:17:13;;;;;;;7.37;3.83;;;;;;;11.19;21.03;101682.47;5077317;28;20208;-74
2022/03/20 11:19:48;;;;;;;3.20;3.00;;;;;;;11.21;21.30;101648.59;5093787;28;20202;-77
2022/03/20 11:22:20;;;;;;;3.57;3.33;;;;;;;11.68;21.17;101690.09;5093568;28;20200;-76
2022/03/20 11:24:51;;;;;;;3.97;3.67;;;;;;;11.95;21.43;101691.88;5093641;28;20238;-77
2022/03/20 11:27:23;;;;;;;14.97;3.60;;;;;;;11.86;20.95;101629.72;5076485;28;20227;-78
2022/03/20 11:29:53;;;;;;;3.60;3.40;;;;;;;12.01;20.89;101654.00;5073601;28;20214;-77
2022/03/20 11:32:20;;;;;;;4.03;3.63;;;;;;;12.12;20.32;101657.25;5073071;28;20233;-78
2022/03/20 11:34:48;;;;;;;3.40;3.20;;;;;;;12.30;20.40;101682.09;5074273;28;20191;-78
2022/03/20 11:37:16;;;;;;;3.90;3.60;;;;;;;12.36;20.72;101670.78;5072701;28;20242;-75
2022/03/20 11:40:19;;;;;;;26.20;14.17;;;;;;;12.01;21.28;101669.97;5073823;28;20278;-73
2022/03/20 11:42:46;;;;;;;7.20;6.60;;;;;;;12.04;21.47;101670.50;5076680;28;20234;-75
2022/03/20 11:45:20;;;;;;;4.53;4.13;;;;;;;12.19;21.14;101647.66;5093232;28;20193;-69
2022/03/20 11:47:48;;;;;;;4.30;3.87;;;;;;;12.35;20.78;101658.47;5091641;28;20197;-72
2022/03/20 11:50:21;;;;;;;3.97;3.67;;;;;;;12.57;21.22;101655.28;5093247;28;20222;-71
2022/03/20 11:52:55;;;;;;;11.20;4.23;;;;;;;12.68;20.41;101652.38;5092254;28;20701;-72
2022/03/20 11:55:32;;;;;;;4.60;3.63;;;;;;;12.63;20.51;101651.16;5092327;28;20739;-70
2022/03/20 11:58:00;;;;;;;3.60;3.30;;;;;;;12.37;20.49;101650.31;5092339;28;20646;-74